Time;durP1;ratioP1;P1;durP2;ratioP2;P2;SDS_P1;SDS_P2;PMS_P1;PMS_P2;Temp;Humidity;BMP_temperature;BMP_pressure;BME280_temperature;BME280_humidity;BME280_pressure;Samples;Min_cycle;Max_cycle;Signal;HPM_P1;HPM_P2
2023/09/13 00:01:11;;;;;;;4.35;3.95;;;;;;;20.05;70.84;100454.59;7401498;19;20014;-66
2023/09/13 00:03:40;;;;;;;6.05;4.80;;;;;;;20.04;70.69;100447.56;7399578;19;20474;-65
2023/09/13 00:06:08;;;;;;;5.40;4.30;;;;;;;20.02;71.34;100442.34;7400940;19;20007;-65
2023/09/13 00:08:37;;;;;;;5.88;4.93;;;;;;;20.02;71.25;100452.16;7401290;19;20082;-66
2023/09/13 00:11:06;;;;;;;9.00;4.90;;;;;;;19.99;71.03;100441.69;7401134;19;20010;-67
2023/09/13 00:13:37;;;;;;;6.93;4.72;;;;;;;19.98;71.05;100442.66;7399940;19;20074;-67
2023/09/13 00:16:06;;;;;;;6.18;4.63;;;;;;;19.96;71.53;100447.25;7400620;19;20478;-68
2023/09/13 00:18:34;;;;;;;5.53;4.72;;;;;;;19.93;71.35;100445.63;7399344;19;20010;-68
2023/09/13 00:21:03;;;;;;;6.43;5.15;;;;;;;19.91;71.20;100452.84;7400814;19;20094;-67
2023/09/13 00:23:31;;;;;;;6.32;4.10;;;;;;;19.86;71.12;100444.31;7399552;19;20021;-68
2023/09/13 00:26:00;;;;;;;9.85;5.88;;;;;;;19.82;71.48;100451.66;7397679;19;20368;-67
2023/09/13 00:28:28;;;;;;;12.20;6.20;;;;;;;19.78;71.96;100446.63;7400175;19;20010;-67
2023/09/13 00:30:59;;;;;;;8.68;5.03;;;;;;;19.75;71.60;100447.66;7400479;19;20027;-68
2023/09/13 00:33:29;;;;;;;9.73;5.20;;;;;;;19.74;71.74;100445.09;7398994;19;20018;-66
2023/09/13 00:35:58;;;;;;;10.88;5.18;;;;;;;19.76;71.80;100437.88;7397429;19;20387;-67
2023/09/13 00:38:27;;;;;;;6.95;5.05;;;;;;;19.75;72.02;100431.69;7397735;19;20082;-66
2023/09/13 00:40:55;;;;;;;11.43;5.15;;;;;;;19.74;71.72;100432.66;7399886;19;20010;-68
2023/09/13 00:43:24;;;;;;;9.40;5.15;;;;;;;19.74;72.11;100431.78;7399166;19;20025;-67
2023/09/13 00:45:54;;;;;;;5.10;4.38;;;;;;;19.74;71.88;100445.97;7399630;19;20011;-67
2023/09/13 00:48:26;;;;;;;6.05;4.82;;;;;;;19.74;72.42;100453.06;7399658;19;20030;-67
2023/09/13 00:50:55;;;;;;;5.70;4.43;;;;;;;19.73;72.12;100443.38;7397861;19;20025;-67
2023/09/13 00:53:26;;;;;;;6.38;4.38;;;;;;;19.73;72.52;100451.34;7398770;19;20087;-67
2023/09/13 00:55:56;;;;;;;8.73;4.70;;;;;;;19.70;72.14;100449.75;7397771;19;20101;-67
2023/09/13 00:58:24;;;;;;;8.00;4.97;;;;;;;19.68;72.38;100451.69;7399018;19;20029;-66
2023/09/13 01:00:55;;;;;;;5.88;4.72;;;;;;;19.65;72.26;100442.09;7399459;19;20066;-66
2023/09/13 01:03:27;;;;;;;5.75;4.70;;;;;;;19.62;72.81;100428.97;7397382;19;20014;-67
2023/09/13 01:05:56;;;;;;;7.65;5.00;;;;;;;19.59;72.68;100431.84;7399800;19;20023;-66
2023/09/13 01:08:25;;;;;;;6.43;5.22;;;;;;;19.56;73.00;100432.00;7396584;19;20006;-66
2023/09/13 01:10:53;;;;;;;6.70;4.35;;;;;;;19.54;72.60;100429.47;7396882;19;20014;-67
2023/09/13 01:13:22;;;;;;;5.30;4.45;;;;;;;19.52;73.14;100433.16;7395399;19;21360;-70
2023/09/13 01:16:00;;;;;;;5.80;5.22;;;;;;;19.53;72.74;100458.84;7399372;19;20025;-68
2023/09/13 01:18:38;;;;;;;6.93;5.18;;;;;;;19.50;78.17;100610.69;7397363;19;20015;-69
2023/09/13 01:21:22;;;;;;;6.25;5.68;;;;;;;19.27;77.69;100633.34;7396919;19;20032;-70
2023/09/13 01:24:17;;;;;;;8.45;5.68;;;;;;;18.99;80.21;100651.81;7398296;19;20481;-69
2023/09/13 01:27:05;;;;;;;11.68;5.53;;;;;;;18.83;80.05;100597.78;7396820;19;20015;-71
2023/09/13 01:29:37;;;;;;;7.18;5.00;;;;;;;18.78;79.24;100621.13;7397029;19;20032;-69
2023/09/13 01:32:07;;;;;;;8.68;5.72;;;;;;;18.80;79.68;100603.28;7399359;19;20038;-68
2023/09/13 01:34:35;;;;;;;6.32;5.60;;;;;;;18.81;79.69;100587.25;7396734;19;20015;-70
2023/09/13 01:37:04;;;;;;;6.05;5.35;;;;;;;18.85;79.75;100556.03;7396616;19;20014;-70
2023/09/13 01:39:33;;;;;;;7.72;6.22;;;;;;;18.87;79.98;100575.41;7396755;19;20018;-70
2023/09/13 01:42:09;;;;;;;6.97;5.97;;;;;;;18.89;80.53;100600.09;7396724;19;20018;-70
2023/09/13 01:44:43;;;;;;;6.85;6.10;;;;;;;18.88;80.87;100606.38;7396198;19;20007;-70
2023/09/13 01:47:11;;;;;;;;;;;;;;;18.84;81.49;100579.13;7398521;19;20492;-70
2023/09/13 01:49:41;;;;;;;10.52;5.20;;;;;;;18.80;81.41;100566.94;7396516;19;19975;-70
2023/09/13 01:52:09;;;;;;;8.82;6.13;;;;;;;18.79;81.76;100565.25;7396400;19;20006;-70
2023/09/13 01:54:38;;;;;;;6.07;5.47;;;;;;;18.75;82.20;100574.31;7396332;19;20018;-69
2023/09/13 01:57:07;;;;;;;10.15;6.53;;;;;;;18.72;82.96;100572.69;7398004;19;20047;-70
2023/09/13 01:59:36;;;;;;;10.35;6.93;;;;;;;18.69;83.33;100546.31;7395396;19;20019;-70
2023/09/13 02:02:07;;;;;;;10.23;6.80;;;;;;;18.66;84.15;100535.00;7397802;19;20038;-70
2023/09/13 02:04:36;;;;;;;9.15;6.28;;;;;;;18.62;84.93;100517.56;7396073;19;20011;-69
2023/09/13 02:07:13;;;;;;;10.15;6.53;;;;;;;18.56;86.16;100503.69;7397740;19;20368;-69
2023/09/13 02:09:41;;;;;;;11.35;6.90;;;;;;;18.47;86.56;100490.09;7396782;19;20013;-68
2023/09/13 02:12:12;;;;;;;8.25;6.97;;;;;;;18.39;86.84;100475.44;7396895;19;20019;-70
2023/09/13 02:14:41;;;;;;;11.85;7.35;;;;;;;18.34;87.79;100452.78;7395865;19;20034;-70
2023/09/13 02:17:12;;;;;;;8.25;7.43;;;;;;;18.29;88.04;100434.44;7398515;19;20014;-69
2023/09/13 02:19:40;;;;;;;9.30;7.47;;;;;;;18.28;88.97;100406.19;7396149;19;20423;-70
2023/09/13 02:22:09;;;;;;;10.20;7.78;;;;;;;18.29;89.25;100396.44;7396439;19;20006;-70
2023/09/13 02:24:38;;;;;;;10.00;8.32;;;;;;;18.29;89.90;100391.97;7396385;19;20010;-70
2023/09/13 02:27:07;;;;;;;9.60;8.70;;;;;;;18.27;90.36;100366.44;7398299;19;20018;-70
2023/09/13 02:29:35;;;;;;;13.20;8.23;;;;;;;18.27;90.25;100355.81;7396386;19;20018;-70
2023/09/13 02:32:03;;;;;;;10.00;7.72;;;;;;;18.25;90.38;100361.25;7407122;19;20007;-70
2023/09/13 02:34:35;;;;;;;11.07;7.63;;;;;;;18.25;90.69;100353.28;7408501;19;20465;-70
2023/09/13 02:37:03;;;;;;;10.77;8.82;;;;;;;18.21;90.56;100338.44;7397270;19;20014;-70
2023/09/13 02:39:33;;;;;;;10.45;8.45;;;;;;;18.18;90.88;100343.97;7394845;19;20002;-70
2023/09/13 02:42:02;;;;;;;10.50;8.60;;;;;;;18.16;91.05;100348.50;7395684;19;20014;-71
2023/09/13 02:44:31;;;;;;;10.27;8.48;;;;;;;18.15;91.30;100342.34;7394926;19;20006;-71
2023/09/13 02:46:59;;;;;;;10.88;8.07;;;;;;;18.12;91.21;100342.53;7396159;19;20034;-70
2023/09/13 02:49:28;;;;;;;12.88;8.98;;;;;;;18.06;91.67;100343.75;7396414;19;20027;-71
2023/09/13 02:51:59;;;;;;;10.40;8.45;;;;;;;18.10;91.48;100344.41;7396387;19;20035;-71
2023/09/13 02:54:28;;;;;;;10.07;9.05;;;;;;;18.10;91.88;100364.78;7394242;19;20037;-70
2023/09/13 02:56:56;;;;;;;10.63;8.73;;;;;;;18.09;91.92;100393.16;7395448;19;20575;-70
2023/09/13 02:59:25;;;;;;;12.43;9.23;;;;;;;18.08;92.27;100388.78;7392621;19;20002;-71
2023/09/13 03:01:53;;;;;;;11.02;8.93;;;;;;;18.06;92.41;100374.75;7396448;19;20019;-68
2023/09/13 03:04:22;;;;;;;9.13;8.07;;;;;;;18.06;92.64;100359.66;7394034;19;20014;-69
2023/09/13 03:06:59;;;;;;;12.18;9.77;;;;;;;18.05;93.02;100363.25;7394065;19;20031;-69
2023/09/13 03:09:27;;;;;;;10.00;8.30;;;;;;;18.04;92.61;100358.91;7396305;19;20094;-70
2023/09/13 03:11:56;;;;;;;14.65;8.98;;;;;;;18.02;92.88;100351.97;7395155;19;20028;-70
2023/09/13 03:14:31;;;;;;;12.13;9.18;;;;;;;18.00;93.42;100349.41;7393078;19;20015;-70
2023/09/13 03:17:06;;;;;;;13.15;8.60;;;;;;;17.97;93.23;100354.91;7396130;19;20010;-68
2023/09/13 03:19:35;;;;;;;14.48;9.38;;;;;;;17.94;93.26;100356.88;7393510;19;20512;-70
2023/09/13 03:22:06;;;;;;;11.98;9.10;;;;;;;17.93;93.75;100358.63;7394062;19;20038;-70
2023/09/13 03:24:35;;;;;;;11.70;9.25;;;;;;;17.91;94.00;100363.22;7393677;19;20028;-71
2023/09/13 03:27:03;;;;;;;11.65;8.70;;;;;;;17.90;94.25;100359.69;7394036;19;20066;-70
2023/09/13 03:29:32;;;;;;;13.05;9.55;;;;;;;17.89;94.40;100358.00;7393661;19;20032;-69
2023/09/13 03:32:00;;;;;;;12.35;10.15;;;;;;;17.86;94.42;100358.16;7396399;19;20014;-71
2023/09/13 03:34:29;;;;;;;12.20;10.57;;;;;;;17.87;94.37;100351.91;7393893;19;20491;-71
2023/09/13 03:36:57;;;;;;;12.07;10.18;;;;;;;17.87;95.05;100351.91;7393032;19;20015;-70
2023/09/13 03:39:28;;;;;;;11.20;9.32;;;;;;;17.87;95.10;100359.88;7394458;19;20011;-71
2023/09/13 03:41:58;;;;;;;13.45;9.63;;;;;;;17.85;95.20;100356.44;7395659;19;20017;-70
2023/09/13 03:44:27;;;;;;;13.25;9.48;;;;;;;17.84;95.00;100340.63;7392958;19;20011;-69
2023/09/13 03:46:55;;;;;;;11.88;9.82;;;;;;;17.82;95.13;100334.53;7393768;19;20079;-71
2023/09/13 03:49:24;;;;;;;14.07;9.93;;;;;;;17.82;95.41;100334.53;7395756;19;20023;-71
2023/09/13 03:52:01;;;;;;;12.23;10.00;;;;;;;17.76;95.56;100330.47;7394113;19;20019;-69
2023/09/13 03:54:38;;;;;;;14.18;9.70;;;;;;;17.76;95.25;100346.38;7398686;19;20011;-70
2023/09/13 03:57:07;;;;;;;12.35;9.55;;;;;;;17.72;95.32;100345.69;7405429;19;20011;-70
2023/09/13 03:59:44;;;;;;;10.98;9.75;;;;;;;17.70;95.66;100357.34;7401214;19;20012;-70
2023/09/13 04:02:12;;;;;;;13.05;10.27;;;;;;;17.67;95.77;100360.19;7405325;19;20006;-70
2023/09/13 04:04:41;;;;;;;10.30;8.95;;;;;;;17.64;95.59;100361.22;7405050;19;20131;-70
2023/09/13 04:07:09;;;;;;;10.90;8.93;;;;;;;17.62;95.75;100370.22;7395152;19;20015;-70
2023/09/13 04:09:40;;;;;;;11.25;9.10;;;;;;;17.58;95.78;100380.97;7393589;19;20011;-71
2023/09/13 04:12:09;;;;;;;10.60;9.45;;;;;;;17.55;96.07;100375.84;7398906;19;20495;-70
2023/09/13 04:14:38;;;;;;;12.50;10.27;;;;;;;17.53;96.14;100377.72;7399686;19;20015;-69
2023/09/13 04:17:06;;;;;;;10.40;9.27;;;;;;;17.51;96.37;100381.41;7398824;19;20011;-69
2023/09/13 04:19:35;;;;;;;11.18;9.05;;;;;;;17.48;96.03;100384.22;7399250;19;20019;-69
2023/09/13 04:22:03;;;;;;;12.10;8.75;;;;;;;17.42;96.28;100383.63;7398936;19;20011;-70
2023/09/13 04:24:33;;;;;;;11.88;9.38;;;;;;;17.42;96.18;100388.09;7398262;19;20011;-70
2023/09/13 04:27:04;;;;;;;15.15;9.73;;;;;;;17.36;96.44;100394.59;7401537;19;20011;-70
2023/09/13 04:29:32;;;;;;;12.57;9.70;;;;;;;17.34;96.83;100396.47;7401659;19;20010;-69
2023/09/13 04:32:01;;;;;;;11.43;9.70;;;;;;;17.31;97.03;100406.38;7398325;19;20027;-69
2023/09/13 04:34:33;;;;;;;12.13;10.32;;;;;;;17.31;97.11;100412.53;7399067;19;20031;-70
2023/09/13 04:37:02;;;;;;;12.93;10.40;;;;;;;17.29;97.44;100421.53;7401194;19;20074;-69
2023/09/13 04:39:31;;;;;;;11.52;9.82;;;;;;;17.25;97.15;100421.69;7400056;19;20018;-70
2023/09/13 04:42:00;;;;;;;16.35;10.90;;;;;;;17.23;97.78;100423.56;7400842;19;20481;-70
2023/09/13 04:44:31;;;;;;;11.93;10.40;;;;;;;17.23;97.64;100428.03;7398659;19;20014;-70
2023/09/13 04:47:00;;;;;;;11.82;10.10;;;;;;;17.22;97.98;100428.97;7402279;19;20086;-71
2023/09/13 04:49:28;;;;;;;12.93;10.55;;;;;;;17.13;98.08;100416.22;7398005;19;20031;-69
2023/09/13 04:51:59;;;;;;;13.05;11.43;;;;;;;17.16;98.09;100426.63;7400911;19;20038;-71
2023/09/13 04:54:36;;;;;;;20.38;14.63;;;;;;;17.21;98.02;100445.81;7398502;19;20029;-71
2023/09/13 04:57:05;;;;;;;16.48;12.45;;;;;;;17.22;98.26;100450.16;7398777;19;20018;-71
2023/09/13 04:59:47;;;;;;;14.90;12.15;;;;;;;17.21;98.51;100456.41;7399745;19;20013;-71
2023/09/13 05:02:16;;;;;;;16.67;11.75;;;;;;;17.19;98.11;100453.00;7398238;19;20014;-71
2023/09/13 05:04:45;;;;;;;14.70;11.68;;;;;;;17.22;98.51;100458.97;7397536;19;20014;-70
2023/09/13 05:07:13;;;;;;;13.63;11.95;;;;;;;17.22;98.46;100451.00;7399041;19;20034;-70
2023/09/13 05:09:42;;;;;;;13.38;11.90;;;;;;;17.23;98.63;100459.84;7400034;19;20015;-72
2023/09/13 05:12:10;;;;;;;13.18;11.60;;;;;;;17.23;98.61;100457.19;7399326;19;20002;-71
2023/09/13 05:14:42;;;;;;;12.55;10.32;;;;;;;17.23;98.95;100454.53;7399882;19;20085;-71
2023/09/13 05:17:13;;;;;;;14.27;11.35;;;;;;;17.24;99.10;100449.16;7397994;19;20529;-72
2023/09/13 05:19:42;;;;;;;14.73;11.55;;;;;;;17.19;99.02;100442.41;7403176;19;20022;-72
2023/09/13 05:22:10;;;;;;;12.27;11.07;;;;;;;17.26;99.14;100449.94;7399933;19;20541;-70
2023/09/13 05:24:39;;;;;;;12.25;10.95;;;;;;;17.29;98.99;100445.38;7397883;19;20015;-70
2023/09/13 05:27:08;;;;;;;12.82;10.95;;;;;;;17.30;99.02;100440.00;7400633;19;20015;-71
2023/09/13 05:29:36;;;;;;;13.95;11.25;;;;;;;17.31;99.37;100447.00;7398917;19;20015;-72
2023/09/13 05:32:05;;;;;;;14.23;12.13;;;;;;;17.35;99.49;100445.03;7401948;19;20024;-72
2023/09/13 05:34:36;;;;;;;14.35;11.52;;;;;;;17.36;99.20;100450.28;7399725;19;20006;-71
2023/09/13 05:37:12;;;;;;;15.05;11.27;;;;;;;17.37;99.40;100449.31;7397798;19;20505;-70
2023/09/13 05:39:41;;;;;;;14.65;11.48;;;;;;;17.37;99.39;100446.66;7398374;19;20354;-71
2023/09/13 05:42:09;;;;;;;12.77;11.32;;;;;;;17.39;99.58;100446.59;7395644;19;20015;-72
2023/09/13 05:44:38;;;;;;;12.55;11.20;;;;;;;17.39;99.37;100433.34;7395738;19;20023;-70
2023/09/13 05:47:07;;;;;;;14.23;11.75;;;;;;;17.42;99.66;100433.16;7397109;19;20028;-70
2023/09/13 05:49:38;;;;;;;15.48;11.25;;;;;;;17.42;99.38;100443.78;7399003;19;20018;-71
2023/09/13 05:52:07;;;;;;;15.63;11.90;;;;;;;17.44;99.71;100431.28;7398292;19;20006;-72
2023/09/13 05:54:35;;;;;;;11.93;10.20;;;;;;;17.50;99.67;100441.56;7396496;19;20006;-72
2023/09/13 05:57:10;;;;;;;12.57;10.40;;;;;;;17.52;99.77;100438.81;7396193;19;20019;-72
2023/09/13 06:00:01;;;;;;;13.73;10.05;;;;;;;17.55;99.53;100443.94;7397784;19;20025;-69
2023/09/13 06:02:29;;;;;;;13.45;10.75;;;;;;;17.57;99.55;100442.06;7396563;19;20016;-69
2023/09/13 06:05:00;;;;;;;13.98;10.90;;;;;;;17.59;99.67;100448.13;7398223;19;20014;-73
2023/09/13 06:07:29;;;;;;;11.63;10.13;;;;;;;17.62;99.75;100440.00;7404954;19;20038;-73
2023/09/13 06:09:58;;;;;;;12.00;10.75;;;;;;;17.65;99.55;100447.78;7400909;19;20013;-75
2023/09/13 06:12:27;;;;;;;11.48;10.27;;;;;;;17.67;99.99;100447.72;7396713;19;20018;-75
2023/09/13 06:15:02;;;;;;;12.95;11.32;;;;;;;17.69;99.78;100444.03;7398576;19;20010;-74
2023/09/13 06:17:38;;;;;;;12.25;10.85;;;;;;;17.71;99.47;100449.25;7402374;19;20003;-75
2023/09/13 06:20:10;;;;;;;12.13;10.60;;;;;;;17.74;99.57;100452.59;7408738;19;20006;-74
2023/09/13 06:22:39;;;;;;;11.90;10.32;;;;;;;17.77;99.45;100448.03;7402319;19;20022;-74
2023/09/13 06:25:08;;;;;;;13.52;10.10;;;;;;;17.81;99.49;100454.91;7398401;19;20018;-73
2023/09/13 06:27:37;;;;;;;12.63;10.63;;;;;;;17.70;99.48;100424.50;7400531;19;20006;-73
2023/09/13 06:30:06;;;;;;;13.68;9.95;;;;;;;17.87;99.53;100451.91;7399396;19;20406;-75
2023/09/13 06:32:35;;;;;;;13.07;10.07;;;;;;;17.88;99.03;100449.16;7399755;19;20361;-73
2023/09/13 06:35:03;;;;;;;11.43;10.25;;;;;;;17.89;99.10;100457.97;7395439;19;20006;-73
2023/09/13 06:37:34;;;;;;;12.18;10.40;;;;;;;17.91;99.33;100454.28;7399099;19;20010;-71
2023/09/13 06:40:03;;;;;;;10.50;9.40;;;;;;;17.78;98.72;100437.38;7401088;19;20477;-73
2023/09/13 06:42:32;;;;;;;14.63;10.05;;;;;;;17.94;98.89;100461.25;7399079;19;20011;-71
2023/09/13 06:45:02;;;;;;;12.55;10.48;;;;;;;17.97;98.68;100460.22;7398111;19;20482;-74
2023/09/13 06:47:31;;;;;;;11.07;9.85;;;;;;;17.99;98.92;100466.28;7399437;19;20011;-72
2023/09/13 06:49:59;;;;;;;14.73;10.23;;;;;;;18.00;98.91;100468.84;7397249;19;20479;-72
2023/09/13 06:52:28;;;;;;;11.70;9.18;;;;;;;18.03;98.88;100476.66;7395942;19;20027;-73
2023/09/13 06:54:59;;;;;;;11.30;9.15;;;;;;;18.07;98.82;100477.31;7394850;19;20494;-73
2023/09/13 06:57:28;;;;;;;12.00;9.43;;;;;;;18.13;99.10;100473.47;7397129;19;20030;-72
2023/09/13 06:59:56;;;;;;;12.45;8.55;;;;;;;18.16;98.78;100478.59;7396876;19;20010;-73
2023/09/13 07:02:25;;;;;;;10.43;8.70;;;;;;;18.21;98.65;100481.81;7397229;19;20010;-72
2023/09/13 07:04:53;;;;;;;11.15;7.43;;;;;;;18.26;98.72;100487.75;7395200;19;20436;-71
2023/09/13 07:07:22;;;;;;;8.75;7.15;;;;;;;18.31;98.13;100468.88;7398404;19;20006;-72
2023/09/13 07:09:51;;;;;;;11.00;7.45;;;;;;;18.34;98.01;100474.88;7396070;19;20014;-72
2023/09/13 07:12:22;;;;;;;9.77;7.05;;;;;;;18.40;97.61;100479.81;7397615;19;20015;-74
2023/09/13 07:14:50;;;;;;;7.32;5.97;;;;;;;18.45;96.70;100481.34;7397425;19;20489;-75
2023/09/13 07:17:19;;;;;;;6.22;5.60;;;;;;;18.49;95.87;100477.59;7397847;19;20010;-74
2023/09/13 07:19:49;;;;;;;5.13;4.50;;;;;;;18.54;95.60;100491.44;7396390;19;20002;-72
2023/09/13 07:22:17;;;;;;;8.00;5.50;;;;;;;18.58;95.12;100498.28;7396086;19;20470;-75
2023/09/13 07:24:46;;;;;;;6.00;4.50;;;;;;;18.63;93.96;100493.53;7395453;19;20018;-74
2023/09/13 07:27:14;;;;;;;5.40;4.53;;;;;;;18.68;93.42;100504.75;7397856;19;20010;-75
2023/09/13 07:29:46;;;;;;;6.35;4.22;;;;;;;18.76;92.52;100501.63;7399043;19;20010;-76
2023/09/13 07:32:15;;;;;;;5.55;4.32;;;;;;;18.86;92.22;100509.91;7395993;19;20054;-74
2023/09/13 07:34:47;;;;;;;6.18;4.80;;;;;;;18.95;91.16;100512.03;7396156;19;20010;-75
2023/09/13 07:37:16;;;;;;;6.68;4.25;;;;;;;19.02;90.61;100518.69;7398373;19;20011;-76
2023/09/13 07:39:45;;;;;;;5.18;3.63;;;;;;;19.08;89.65;100528.09;7397721;19;20010;-75
2023/09/13 07:42:13;;;;;;;6.15;4.55;;;;;;;19.09;89.39;100528.97;7395097;19;20068;-74
2023/09/13 07:44:45;;;;;;;5.30;4.30;;;;;;;19.12;88.46;100539.41;7397014;19;20015;-76
2023/09/13 07:47:13;;;;;;;5.60;4.45;;;;;;;19.12;88.92;100539.41;7401966;19;20445;-77
2023/09/13 07:49:42;;;;;;;4.63;4.07;;;;;;;19.11;88.55;100540.34;7405905;19;20398;-75
2023/09/13 07:52:11;;;;;;;5.05;3.97;;;;;;;19.10;88.92;100542.16;7400736;19;20018;-76
2023/09/13 07:54:39;;;;;;;4.90;4.38;;;;;;;19.10;88.13;100558.09;7401508;19;20037;-76
2023/09/13 07:57:09;;;;;;;6.65;4.75;;;;;;;19.07;87.51;100557.44;7406382;19;20006;-73
2023/09/13 07:59:37;;;;;;;7.05;5.07;;;;;;;19.04;87.65;100548.72;7402579;19;20014;-78
2023/09/13 08:02:08;;;;;;;6.78;4.57;;;;;;;19.05;87.43;100557.53;7403030;19;20481;-75
2023/09/13 08:04:37;;;;;;;7.13;4.55;;;;;;;19.04;87.02;100563.78;7402452;19;20013;-77
2023/09/13 08:07:06;;;;;;;6.30;4.07;;;;;;;19.06;86.88;100561.91;7400611;19;20007;-75
2023/09/13 08:09:34;;;;;;;5.53;4.43;;;;;;;19.07;86.49;100555.66;7401289;19;20078;-76
2023/09/13 08:12:03;;;;;;;5.20;4.00;;;;;;;19.07;86.01;100563.63;7399798;19;20014;-75
2023/09/13 08:14:34;;;;;;;11.43;4.00;;;;;;;19.07;85.63;100565.41;7400216;19;20087;-76
2023/09/13 08:17:02;;;;;;;4.72;4.18;;;;;;;19.07;85.63;100570.72;7404119;19;20486;-75
2023/09/13 08:19:33;;;;;;;4.75;3.58;;;;;;;19.05;85.03;100566.34;7398948;19;20038;-74
2023/09/13 08:22:04;;;;;;;7.10;4.38;;;;;;;19.10;84.68;100576.72;7398649;19;20478;-74
2023/09/13 08:24:35;;;;;;;4.90;4.03;;;;;;;19.12;84.00;100584.59;7400664;19;20034;-77
2023/09/13 08:27:07;;;;;;;6.05;3.85;;;;;;;19.16;83.94;100586.16;7403125;19;20486;-76
2023/09/13 08:29:37;;;;;;;5.72;4.35;;;;;;;19.21;83.89;100584.91;7403242;19;20013;-75
2023/09/13 08:32:06;;;;;;;5.00;4.32;;;;;;;19.28;83.81;100581.88;7400725;19;20020;-75
2023/09/13 08:34:37;;;;;;;5.75;4.35;;;;;;;19.36;83.69;100579.59;7402219;19;20035;-74
2023/09/13 08:37:06;;;;;;;5.13;3.53;;;;;;;19.37;83.13;100576.84;7400994;19;20024;-76
2023/09/13 08:39:35;;;;;;;5.30;3.65;;;;;;;19.50;82.61;100592.06;7399636;19;20537;-75
2023/09/13 08:42:04;;;;;;;5.22;3.30;;;;;;;19.56;82.13;100594.31;7399073;19;20011;-74
2023/09/13 08:44:34;;;;;;;4.80;3.33;;;;;;;19.64;81.74;100597.38;7400486;19;20019;-76
2023/09/13 08:47:05;;;;;;;6.18;3.67;;;;;;;19.74;81.43;100589.69;7403964;19;20017;-74
2023/09/13 08:49:37;;;;;;;4.18;3.67;;;;;;;19.84;80.70;100589.97;7402113;19;20006;-77
2023/09/13 08:52:07;;;;;;;3.83;3.28;;;;;;;19.94;80.08;100593.78;7404999;19;20009;-75
2023/09/13 08:54:38;;;;;;;3.65;2.90;;;;;;;20.02;79.93;100594.13;7404490;19;20010;-78
2023/09/13 08:57:08;;;;;;;6.10;2.95;;;;;;;20.13;78.97;100605.91;7401969;19;20490;-77
2023/09/13 08:59:36;;;;;;;3.50;2.50;;;;;;;20.20;78.99;100603.72;7403569;19;20015;-77
2023/09/13 09:02:07;;;;;;;4.53;2.83;;;;;;;20.28;78.56;100598.72;7403383;19;20030;-77
2023/09/13 09:04:38;;;;;;;3.72;2.72;;;;;;;20.35;76.20;100613.38;7403971;19;20093;-76
2023/09/13 09:07:07;;;;;;;3.33;2.88;;;;;;;20.34;77.25;100631.16;7405010;19;20014;-77
2023/09/13 09:09:37;;;;;;;5.13;3.05;;;;;;;20.35;76.63;100624.88;7402307;19;20381;-78
2023/09/13 09:12:08;;;;;;;3.45;2.88;;;;;;;20.37;76.79;100629.25;7402318;19;20040;-75
2023/09/13 09:14:39;;;;;;;3.00;2.70;;;;;;;20.33;76.45;100631.25;7404409;19;20034;-80
2023/09/13 09:17:08;;;;;;;3.15;2.53;;;;;;;20.31;76.34;100622.53;7401460;19;20363;-75
2023/09/13 09:19:40;;;;;;;3.35;2.65;;;;;;;20.37;76.64;100626.59;7400407;19;20031;-75
2023/09/13 09:22:11;;;;;;;3.67;2.50;;;;;;;20.37;76.36;100630.09;7400286;19;20015;-75
2023/09/13 09:24:42;;;;;;;3.22;2.58;;;;;;;20.39;76.41;100628.19;7401970;19;20022;-77
2023/09/13 09:27:11;;;;;;;3.70;2.63;;;;;;;20.39;76.16;100638.84;7399391;19;20139;-74
2023/09/13 09:29:44;;;;;;;3.58;2.33;;;;;;;20.33;75.75;100640.13;7400310;19;20038;-78
2023/09/13 09:32:15;;;;;;;3.50;2.40;;;;;;;20.30;75.48;100644.78;7400816;19;20017;-75
2023/09/13 09:34:46;;;;;;;2.63;2.42;;;;;;;20.26;75.71;100648.59;7397937;19;20006;-75
2023/09/13 09:37:15;;;;;;;3.13;2.00;;;;;;;20.26;75.25;100661.94;7399729;19;20011;-74
2023/09/13 09:39:45;;;;;;;4.05;2.35;;;;;;;20.33;75.57;100639.25;7402830;19;20010;-75
2023/09/13 09:42:17;;;;;;;3.00;1.90;;;;;;;20.46;74.50;100660.63;7397158;19;20007;-75
2023/09/13 09:44:46;;;;;;;2.17;1.88;;;;;;;20.55;74.28;100656.50;7398842;19;20011;-73
2023/09/13 09:47:15;;;;;;;2.70;2.20;;;;;;;20.61;74.66;100654.31;7398899;19;20023;-75
2023/09/13 09:49:48;;;;;;;3.63;2.17;;;;;;;20.70;73.78;100652.84;7400323;19;20378;-74
2023/09/13 09:52:17;;;;;;;3.60;2.42;;;;;;;20.79;74.49;100646.09;7400256;19;20541;-75
2023/09/13 09:54:53;;;;;;;4.20;2.05;;;;;;;20.89;71.88;100646.31;7397746;19;20079;-74
2023/09/13 09:57:25;;;;;;;2.55;2.15;;;;;;;20.94;73.03;100660.19;7398630;19;20038;-74
2023/09/13 09:59:55;;;;;;;4.82;2.00;;;;;;;21.01;72.86;100668.66;7400431;19;20006;-78
2023/09/13 10:02:30;;;;;;;5.10;2.38;;;;;;;21.07;72.76;100657.56;7400427;19;20074;-74
2023/09/13 10:05:03;;;;;;;2.42;2.00;;;;;;;21.09;72.07;100667.19;7397247;19;20027;-76
2023/09/13 10:07:32;;;;;;;2.00;1.63;;;;;;;21.16;71.86;100663.13;7397147;19;20391;-73
2023/09/13 10:10:09;;;;;;;3.60;1.52;;;;;;;21.18;72.32;100670.16;7397029;19;20485;-76
2023/09/13 10:12:47;;;;;;;3.35;2.35;;;;;;;21.21;71.51;100677.97;7398136;19;20018;-75
2023/09/13 10:15:19;;;;;;;3.78;2.15;;;;;;;21.22;71.68;100680.53;7398375;19;20014;-75
2023/09/13 10:17:50;;;;;;;2.50;1.83;;;;;;;21.22;71.47;100683.22;7398628;19;20518;-77
2023/09/13 10:20:23;;;;;;;4.43;1.98;;;;;;;21.20;71.21;100687.78;7399528;19;20017;-77
2023/09/13 10:22:52;;;;;;;2.88;2.30;;;;;;;21.15;71.57;100706.78;7398040;19;20010;-75
2023/09/13 10:25:22;;;;;;;2.95;2.58;;;;;;;21.05;71.82;100707.50;7399654;19;20031;-75
2023/09/13 10:27:54;;;;;;;3.55;2.35;;;;;;;20.94;72.26;100701.06;7398213;19;20076;-75
2023/09/13 10:30:27;;;;;;;3.33;2.55;;;;;;;20.90;72.80;100709.34;7398794;19;20011;-74
2023/09/13 10:33:00;;;;;;;3.63;2.30;;;;;;;20.86;73.45;100713.19;7398870;19;20038;-75
2023/09/13 10:35:37;;;;;;;2.67;1.88;;;;;;;20.79;72.72;100710.91;7401210;19;20026;-77
2023/09/13 10:38:14;;;;;;;2.20;1.92;;;;;;;20.82;73.00;100716.03;7398982;19;20010;-73
2023/09/13 10:40:46;;;;;;;2.25;1.88;;;;;;;20.85;73.30;100706.13;7401013;19;20007;-76
2023/09/13 10:43:16;;;;;;;4.53;2.25;;;;;;;20.93;73.29;100718.00;7400415;19;20035;-75
2023/09/13 10:45:45;;;;;;;3.50;2.33;;;;;;;21.01;72.79;100708.66;7401682;19;20011;-76
2023/09/13 10:48:15;;;;;;;2.70;2.05;;;;;;;21.10;72.57;100708.03;7399972;19;20020;-74
2023/09/13 10:50:46;;;;;;;2.75;1.90;;;;;;;21.12;71.76;100722.13;7400220;19;20371;-75
2023/09/13 10:53:16;;;;;;;4.60;2.50;;;;;;;21.08;72.52;100720.59;7399178;19;20478;-76
2023/09/13 10:55:46;;;;;;;2.92;2.10;;;;;;;21.11;72.46;100737.28;7396794;19;20018;-76
2023/09/13 10:58:20;;;;;;;2.58;2.35;;;;;;;21.10;72.18;100746.22;7398122;19;20037;-76
2023/09/13 11:00:50;;;;;;;2.85;2.45;;;;;;;21.05;72.42;100743.00;7401641;19;20030;-77
2023/09/13 11:03:19;;;;;;;3.40;2.72;;;;;;;20.95;72.70;100732.09;7397392;19;20017;-74
2023/09/13 11:05:54;;;;;;;3.08;2.78;;;;;;;20.81;72.34;100745.47;7399311;19;20014;-77
2023/09/13 11:08:34;;;;;;;5.78;3.28;;;;;;;20.84;72.40;100761.28;7403011;19;20014;-75
2023/09/13 11:11:14;;;;;;;2.97;2.67;;;;;;;20.74;73.03;100757.47;7403630;19;20015;-75
2023/09/13 11:13:45;;;;;;;4.22;2.90;;;;;;;20.63;73.45;100753.66;7408291;19;20014;-73
2023/09/13 11:16:17;;;;;;;5.57;3.05;;;;;;;20.56;74.13;100754.16;7403770;19;20014;-76
2023/09/13 11:18:50;;;;;;;3.05;2.83;;;;;;;20.51;73.89;100762.47;7407643;19;20010;-76
2023/09/13 11:21:28;;;;;;;4.22;2.83;;;;;;;20.45;74.62;100768.19;7399970;19;20509;-75
2023/09/13 11:23:58;;;;;;;3.78;3.08;;;;;;;20.45;74.84;100770.84;7399235;19;20019;-77
2023/09/13 11:26:54;;;;;;;4.93;3.10;;;;;;;20.46;74.50;100769.88;7404133;19;20520;-77
2023/09/13 11:29:25;;;;;;;3.10;2.80;;;;;;;20.47;74.73;100774.25;7407914;19;20051;-78
2023/09/13 11:32:02;;;;;;;3.25;2.95;;;;;;;20.53;75.25;100773.88;7413134;19;20037;-75
2023/09/13 11:34:31;;;;;;;3.40;3.10;;;;;;;20.59;74.86;100769.97;7399628;19;20018;-70